Time;durP1;ratioP1;P1;durP2;ratioP2;P2;SDS_P1;SDS_P2;PMS_P1;PMS_P2;Temp;Humidity;BMP_temperature;BMP_pressure;BME280_temperature;BME280_humidity;BME280_pressure;Samples;Min_cycle;Max_cycle;Signal;HPM_P1;HPM_P2
2022/01/03 00:03:42;;;;;;;4.9;7.7;;;;;;;10.1;65.5;98200;;;;
2022/01/03 00:14:42;;;;;;;4.9;7.7;;;;;;;10.2;65.5;98180;;;;
2022/01/03 00:25:42;;;;;;;4.9;8.3;;;;;;;10.3;65.3;98190;;;;
2022/01/03 00:35:42;;;;;;;4.9;8.3;;;;;;;10.5;64.7;98190;;;;
2022/01/03 00:45:42;;;;;;;4.9;8.3;;;;;;;10.4;65.2;98180;;;;
2022/01/03 00:55:42;;;;;;;4.7;7;;;;;;;10.4;65.4;98180;;;;
2022/01/03 01:06:42;;;;;;;4.7;7;;;;;;;10.4;65.2;98140;;;;
2022/01/03 01:17:42;;;;;;;4.7;7;;;;;;;10.3;65.3;98140;;;;
2022/01/03 01:28:42;;;;;;;4.8;9.4;;;;;;;10.4;65;98140;;;;
2022/01/03 01:38:42;;;;;;;4.8;9.4;;;;;;;10.4;65.1;98130;;;;
2022/01/03 01:48:42;;;;;;;4.8;9.4;;;;;;;10.4;64.7;98110;;;;
2022/01/03 01:59:42;;;;;;;4.1;7.4;;;;;;;10.4;64.7;98100;;;;
2022/01/03 02:10:42;;;;;;;4.1;7.4;;;;;;;10.3;64.8;98080;;;;
2022/01/03 02:20:42;;;;;;;4.1;7.4;;;;;;;10.4;65.2;98100;;;;
2022/01/03 02:31:42;;;;;;;3.7;6.5;;;;;;;10.5;64.1;98080;;;;
2022/01/03 02:42:42;;;;;;;3.7;6.5;;;;;;;10.5;63.8;98050;;;;
2022/01/03 02:53:42;;;;;;;2.8;5.2;;;;;;;10.2;64.1;98050;;;;
2022/01/03 03:03:42;;;;;;;2.8;5.2;;;;;;;9.9;65.1;98050;;;;
2022/01/03 03:13:42;;;;;;;2.8;5.2;;;;;;;9.5;67.2;98060;;;;
2022/01/03 03:24:42;;;;;;;3.6;6.6;;;;;;;9.5;67.6;98050;;;;
2022/01/03 03:35:42;;;;;;;3.6;6.6;;;;;;;9.6;67.6;98030;;;;
2022/01/03 03:45:42;;;;;;;3.6;6.6;;;;;;;9.7;66.9;98030;;;;
2022/01/03 03:55:43;;;;;;;3.4;6.2;;;;;;;9.9;66.6;98040;;;;
2022/01/03 04:06:42;;;;;;;3.4;6.2;;;;;;;9.9;66.5;98030;;;;
2022/01/03 04:17:42;;;;;;;3.4;6.2;;;;;;;10;66.4;98030;;;;
2022/01/03 04:27:42;;;;;;;3.7;6.3;;;;;;;10;66.5;98030;;;;
2022/01/03 04:38:42;;;;;;;3.7;6.3;;;;;;;9.9;66.8;98010;;;;
2022/01/03 04:49:42;;;;;;;3.7;6.3;;;;;;;9.9;66.8;98000;;;;
2022/01/03 04:59:42;;;;;;;3.7;6.4;;;;;;;9.9;67;98000;;;;
2022/01/03 05:09:42;;;;;;;3.7;6.4;;;;;;;9.9;67.2;97990;;;;
2022/01/03 05:20:42;;;;;;;3.7;6.4;;;;;;;9.8;67.2;97960;;;;
2022/01/03 05:30:42;;;;;;;3.3;6.5;;;;;;;9.9;67;97930;;;;
2022/01/03 05:40:42;;;;;;;3.3;6.5;;;;;;;10;66.5;97950;;;;
2022/01/03 05:50:42;;;;;;;3.3;6.5;;;;;;;10;68.3;97950;;;;
2022/01/03 06:01:42;;;;;;;3.5;6.2;;;;;;;9.8;72.5;97950;;;;
2022/01/03 06:12:42;;;;;;;3.5;6.2;;;;;;;9.3;75.5;97940;;;;
2022/01/03 06:22:42;;;;;;;3.8;8.3;;;;;;;9;76.3;97920;;;;
2022/01/03 06:32:42;;;;;;;3.8;8.3;;;;;;;9;76.1;97920;;;;
2022/01/03 06:43:42;;;;;;;3.8;8.3;;;;;;;9.1;75.6;97950;;;;
2022/01/03 06:54:42;;;;;;;4.1;6.6;;;;;;;8.9;77.8;97960;;;;
2022/01/03 07:04:42;;;;;;;4.1;6.6;;;;;;;8.9;78.8;97980;;;;
2022/01/03 07:24:42;;;;;;;3.3;6.6;;;;;;;9.5;76.4;97940;;;;
2022/01/03 07:35:42;;;;;;;3.3;6.6;;;;;;;9.8;75.1;97950;;;;
2022/01/03 07:45:42;;;;;;;3.3;6.6;;;;;;;10;72.8;97970;;;;
2022/01/03 07:55:42;;;;;;;3.2;5.5;;;;;;;10.1;73;98000;;;;
2022/01/03 08:06:42;;;;;;;3.2;5.5;;;;;;;10.2;71.2;98000;;;;
2022/01/03 08:17:44;;;;;;;3.2;5.5;;;;;;;10.3;70.7;98010;;;;
2022/01/03 08:27:42;;;;;;;3;7.8;;;;;;;10.4;69.6;98000;;;;
2022/01/03 08:37:42;;;;;;;3;7.8;;;;;;;10.6;69.1;98010;;;;
2022/01/03 08:47:43;;;;;;;3;7.8;;;;;;;10.6;68.1;98030;;;;
2022/01/03 08:57:43;;;;;;;2.9;5.8;;;;;;;10.4;67.7;98020;;;;
2022/01/03 09:08:42;;;;;;;2.9;5.8;;;;;;;10.4;67.3;98040;;;;
2022/01/03 09:18:42;;;;;;;2.9;5.8;;;;;;;10.5;67.5;98040;;;;
2022/01/03 09:29:42;;;;;;;2.5;5;;;;;;;10.6;66.5;98020;;;;
2022/01/03 09:40:42;;;;;;;2.5;5;;;;;;;10.8;66.7;98020;;;;
2022/01/03 09:50:42;;;;;;;2.3;5.5;;;;;;;10.6;66.7;98010;;;;
2022/01/03 10:00:42;;;;;;;2.3;5.5;;;;;;;10.9;66.6;98010;;;;
2022/01/03 10:11:42;;;;;;;2.3;5.5;;;;;;;10.7;66.6;98010;;;;
2022/01/03 10:21:42;;;;;;;2.2;5.5;;;;;;;11;65.9;98000;;;;
2022/01/03 10:31:42;;;;;;;2.2;5.5;;;;;;;11;66.8;98010;;;;
2022/01/03 10:41:43;;;;;;;2.2;5.5;;;;;;;10.8;67.2;98000;;;;
2022/01/03 10:52:42;;;;;;;2.7;5.5;;;;;;;11.4;66.6;98000;;;;
2022/01/03 11:03:44;;;;;;;2.7;5.5;;;;;;;10.9;66.6;97990;;;;
2022/01/03 11:13:42;;;;;;;2.7;5.5;;;;;;;11;67.1;97970;;;;
2022/01/03 11:24:42;;;;;;;2.7;6.7;;;;;;;10.3;71.6;98000;;;;
2022/01/03 11:35:42;;;;;;;2.7;6.7;;;;;;;9.3;74.4;97980;;;;
2022/01/03 11:46:42;;;;;;;2.7;6.7;;;;;;;9;73.3;97970;;;;
2022/01/03 11:57:47;;;;;;;2.3;6.8;;;;;;;9.1;71.1;97980;;;;
2022/01/03 12:07:42;;;;;;;2.3;6.8;;;;;;;9;69.6;97970;;;;
2022/01/03 12:18:42;;;;;;;2.3;6.8;;;;;;;9;68.6;97980;;;;
2022/01/03 12:28:42;;;;;;;3;5.5;;;;;;;9.3;66.1;97970;;;;
2022/01/03 12:38:42;;;;;;;3;5.5;;;;;;;9.5;65.1;97960;;;;
2022/01/03 12:49:42;;;;;;;3;5.5;;;;;;;9.8;63.7;97970;;;;
2022/01/03 13:00:42;;;;;;;3.4;7;;;;;;;10.2;62.7;97960;;;;
2022/01/03 13:10:42;;;;;;;3.4;7;;;;;;;10.1;62.9;97980;;;;
2022/01/03 13:21:42;;;;;;;4.5;7.3;;;;;;;9.8;64.2;97980;;;;
2022/01/03 13:31:42;;;;;;;4.5;7.3;;;;;;;9.7;65.1;97990;;;;
2022/01/03 13:41:42;;;;;;;4.5;7.3;;;;;;;9.6;65.9;98000;;;;
2022/01/03 13:51:42;;;;;;;4.4;7.8;;;;;;;9.3;66.1;97990;;;;
2022/01/03 14:02:42;;;;;;;4.4;7.8;;;;;;;9.3;65.9;98000;;;;
2022/01/03 14:12:42;;;;;;;4.4;7.8;;;;;;;9.3;65.4;98020;;;;
2022/01/03 14:23:42;;;;;;;3.7;7.3;;;;;;;9.4;64.9;98020;;;;
2022/01/03 14:33:42;;;;;;;3.7;7.3;;;;;;;9.3;64.2;98030;;;;
2022/01/03 14:43:42;;;;;;;3.7;7.3;;;;;;;9.5;63.7;98040;;;;
2022/01/03 14:53:42;;;;;;;5.5;8.9;;;;;;;9.5;63.6;98060;;;;
2022/01/03 15:03:42;;;;;;;5.5;8.9;;;;;;;9.6;62.9;98070;;;;
2022/01/03 15:13:43;;;;;;;5.5;8.9;;;;;;;9.5;64.2;98100;;;;
2022/01/03 15:23:42;;;;;;;4;7.5;;;;;;;9.3;64.9;98090;;;;
2022/01/03 15:33:42;;;;;;;4;7.5;;;;;;;9.2;63.6;98100;;;;
2022/01/03 15:44:42;;;;;;;4;7.5;;;;;;;9.3;63.1;98110;;;;
2022/01/03 15:54:42;;;;;;;5.3;9.6;;;;;;;9.3;62.9;98120;;;;
2022/01/03 16:04:43;;;;;;;5.3;9.6;;;;;;;9.2;63.3;98110;;;;
2022/01/03 16:14:42;;;;;;;5.3;9.6;;;;;;;9.1;63.8;98120;;;;
2022/01/03 16:25:42;;;;;;;6.4;10.7;;;;;;;8.8;64.7;98130;;;;
2022/01/03 16:36:42;;;;;;;6.4;10.7;;;;;;;8.5;65.2;98130;;;;
2022/01/03 16:47:42;;;;;;;6.4;10.7;;;;;;;8.3;65.9;98150;;;;
2022/01/03 16:58:42;;;;;;;9.4;14.7;;;;;;;8.4;65.7;98150;;;;
2022/01/03 17:09:42;;;;;;;9.4;14.7;;;;;;;8.2;66.1;98160;;;;
2022/01/03 17:20:42;;;;;;;10.1;13;;;;;;;8.4;66;98160;;;;
2022/01/03 17:30:42;;;;;;;10.1;13;;;;;;;8.6;65.3;98170;;;;
2022/01/03 17:40:43;;;;;;;10.1;13;;;;;;;8.6;65.9;98160;;;;
2022/01/03 17:51:42;;;;;;;8.9;13.9;;;;;;;8.6;66.2;98150;;;;
2022/01/03 18:02:42;;;;;;;8.9;13.9;;;;;;;8.7;65.8;98140;;;;
2022/01/03 18:12:49;;;;;;;8.9;13.9;;;;;;;8.7;65;98140;;;;
2022/01/03 18:23:42;;;;;;;10.9;17;;;;;;;8.8;65;98130;;;;
2022/01/03 18:34:42;;;;;;;10.9;17;;;;;;;8.8;63.5;98120;;;;
2022/01/03 18:44:42;;;;;;;10.9;17;;;;;;;8.7;62.4;98110;;;;
2022/01/03 18:55:44;;;;;;;6.5;10.5;;;;;;;8.5;62.6;98110;;;;
2022/01/03 19:05:42;;;;;;;6.5;10.5;;;;;;;8.2;63.3;98110;;;;
2022/01/03 19:15:44;;;;;;;6.5;10.5;;;;;;;8.3;62.5;98100;;;;
2022/01/03 19:26:42;;;;;;;5.9;10.5;;;;;;;8.3;62.2;98090;;;;
2022/01/03 19:38:00;;;;;;;5.9;10.5;;;;;;;8.4;61.8;98090;;;;
2022/01/03 19:47:42;;;;;;;5.9;10.5;;;;;;;8.4;62;98100;;;;
2022/01/03 19:57:42;;;;;;;6.4;11.5;;;;;;;8.4;62.5;98100;;;;
2022/01/03 20:07:42;;;;;;;6.4;11.5;;;;;;;8.3;62;98100;;;;
2022/01/03 20:17:42;;;;;;;6.4;11.5;;;;;;;8.3;62.2;98100;;;;
2022/01/03 20:28:42;;;;;;;8.3;14.9;;;;;;;8.3;62;98080;;;;
2022/01/03 20:38:42;;;;;;;8.3;14.9;;;;;;;8.3;62;98080;;;;
2022/01/03 20:48:42;;;;;;;8.3;14.9;;;;;;;8.3;61.6;98060;;;;
2022/01/03 20:59:42;;;;;;;7.3;11.7;;;;;;;8.3;61.8;98050;;;;
2022/01/03 21:09:42;;;;;;;7.3;11.7;;;;;;;8.3;61.9;98050;;;;
2022/01/03 21:20:42;;;;;;;6.9;11.7;;;;;;;8.4;61.3;98040;;;;
2022/01/03 21:31:42;;;;;;;6.9;11.7;;;;;;;8.4;60.8;98030;;;;
2022/01/03 21:41:42;;;;;;;6.9;11.7;;;;;;;8.5;60.2;98020;;;;
2022/01/03 21:51:42;;;;;;;6;10.8;;;;;;;8.6;60.2;98020;;;;
2022/01/03 22:01:42;;;;;;;6;10.8;;;;;;;8.6;60.6;98010;;;;
2022/01/03 22:11:42;;;;;;;6;10.8;;;;;;;8.6;61.2;97990;;;;
2022/01/03 22:21:42;;;;;;;4.5;8.4;;;;;;;8.4;62;98000;;;;
2022/01/03 22:32:43;;;;;;;4.5;8.4;;;;;;;8.4;62.8;98010;;;;
2022/01/03 22:42:42;;;;;;;4.5;8.4;;;;;;;8.3;63.5;98000;;;;
2022/01/03 22:53:42;;;;;;;3.4;7.3;;;;;;;8.2;64.6;97970;;;;
2022/01/03 23:04:42;;;;;;;3.4;7.3;;;;;;;8.1;65.5;97960;;;;
2022/01/03 23:14:42;;;;;;;3.4;7.3;;;;;;;8;66;97960;;;;
2022/01/03 23:25:42;;;;;;;3.8;6.9;;;;;;;7.8;66.6;97960;;;;
2022/01/03 23:35:42;;;;;;;3.8;6.9;;;;;;;7.8;67.4;97960;;;;
2022/01/03 23:45:42;;;;;;;3.8;6.9;;;;;;;7.9;67.7;97950;;;;
2022/01/03 23:55:42;;;;;;;3.2;6.1;;;;;;;8;67.7;97940;;;;
